Dodge, Texas
Current Conditions -  °F | °C
As of 2:01 AM on Friday 19 Dec 2014 (Local Time) from KUTS Reporting Station
Heavy Rain Heavy Rain  
Wind Chill: 53°   Ceiling: 2500
Heat Index: 53°   Visibility: 2.5mi
Dew Point: 52°   Wind: 5mph
Humidity: 96%   Direction: 50°NE
Pressure: 30.07"   Gusts: NA
Location:  30.75°N, 95.4°W
Report Text: KUTS 190801Z AUTO 05004KT 2 1/2SM +RA BR SCT005 BKN025 OVC060 12/11 A3007 RMK AO2 LTG DSNT E AND SE P0003 T01170111
Loading
Personal Weather Stations






























Interactive Weather Map New forecast layout! Learn more

10-Day Weather Forecast

Advertisements
Track Severe Weather on mobile